createdAt,value
2023-04-29T00:01:41.122Z,13.40
2023-04-29T00:04:09.594Z,13.40
2023-04-29T00:06:37.196Z,13.40
2023-04-29T00:09:04.553Z,13.40
2023-04-29T00:11:31.579Z,13.40
2023-04-29T00:13:58.481Z,13.40
2023-04-29T00:16:26.051Z,13.40
2023-04-29T00:18:53.096Z,13.40
2023-04-29T00:21:21.411Z,13.40
2023-04-29T00:23:48.257Z,13.40
2023-04-29T00:26:15.155Z,13.40
2023-04-29T00:28:46.357Z,13.50
2023-04-29T00:31:13.681Z,13.50
2023-04-29T00:33:40.951Z,13.50
2023-04-29T00:36:08.586Z,13.50
2023-04-29T00:38:36.937Z,13.50
2023-04-29T00:41:03.992Z,13.50
2023-04-29T00:43:30.943Z,13.50
2023-04-29T00:45:57.907Z,13.50
2023-04-29T00:48:26.531Z,13.50
2023-04-29T00:50:53.443Z,13.50
2023-04-29T00:53:20.868Z,13.40
2023-04-29T00:55:51.761Z,13.40
2023-04-29T00:58:20.103Z,13.40
2023-04-29T01:00:48.328Z,13.30
2023-04-29T01:03:16.032Z,13.30
2023-04-29T01:05:46.138Z,13.40
2023-04-29T01:08:24.175Z,13.40
2023-04-29T01:10:55.963Z,13.40
2023-04-29T01:13:31.043Z,13.40
2023-04-29T01:16:05.751Z,13.40
2023-04-29T01:18:37.223Z,13.40
2023-04-29T01:21:04.319Z,13.40
2023-04-29T01:23:32.586Z,13.40
2023-04-29T01:25:59.837Z,13.40
2023-04-29T01:28:54.667Z,13.30
2023-04-29T01:31:28.587Z,13.30
2023-04-29T01:34:04.787Z,13.40
2023-04-29T01:36:40.934Z,13.30
2023-04-29T01:39:14.498Z,13.30
2023-04-29T01:41:44.448Z,13.30
2023-04-29T01:44:21.902Z,13.30
2023-04-29T01:46:52.084Z,13.30
2023-04-29T01:49:21.241Z,13.30
2023-04-29T01:51:48.318Z,13.30
2023-04-29T01:54:16.764Z,13.30
2023-04-29T01:56:45.124Z,13.20
2023-04-29T01:59:30.281Z,13.20
2023-04-29T02:02:07.927Z,13.20
2023-04-29T02:04:38.699Z,13.20
2023-04-29T02:07:05.651Z,13.20
2023-04-29T02:09:34.064Z,13.20
2023-04-29T02:12:07.919Z,13.20
2023-04-29T02:14:37.413Z,13.10
2023-04-29T02:17:04.971Z,13.10
2023-04-29T02:19:31.888Z,13.00
2023-04-29T02:21:58.860Z,13.00
2023-04-29T02:24:26.375Z,13.00
2023-04-29T02:26:54.696Z,12.90
2023-04-29T02:29:21.786Z,12.90
2023-04-29T02:31:49.201Z,12.90
2023-04-29T02:34:16.559Z,12.90
2023-04-29T02:36:43.775Z,12.90
2023-04-29T02:39:10.914Z,12.80
2023-04-29T02:41:37.826Z,12.80
2023-04-29T02:44:06.056Z,12.80
2023-04-29T02:46:35.292Z,12.80
2023-04-29T02:49:02.834Z,12.80
2023-04-29T02:51:30.820Z,12.80
2023-04-29T02:53:58.613Z,12.70
2023-04-29T02:56:25.608Z,12.70
2023-04-29T02:58:52.482Z,12.70
2023-04-29T03:01:21.466Z,12.70
2023-04-29T03:03:49.237Z,12.70
2023-04-29T03:06:17.411Z,12.60
2023-04-29T03:08:44.313Z,12.60
2023-04-29T03:11:11.248Z,12.60
2023-04-29T03:13:38.703Z,12.50
2023-04-29T03:16:07.769Z,12.60
2023-04-29T03:18:36.099Z,12.60
2023-04-29T03:21:04.755Z,12.50
2023-04-29T03:23:31.936Z,12.60
2023-04-29T03:25:59.200Z,12.60
2023-04-29T03:28:26.182Z,12.50
2023-04-29T03:30:53.245Z,12.50
2023-04-29T03:33:20.185Z,12.40
2023-04-29T03:35:49.051Z,12.40
2023-04-29T03:38:16.057Z,12.40
2023-04-29T03:40:45.432Z,12.30
2023-04-29T03:43:13.960Z,12.30
2023-04-29T03:45:41.426Z,12.40
2023-04-29T03:48:08.652Z,12.40
2023-04-29T03:50:36.548Z,12.40
2023-04-29T03:53:05.679Z,12.30
2023-04-29T03:55:32.654Z,12.30
2023-04-29T03:57:59.717Z,12.20
2023-04-29T04:00:30.999Z,12.20
2023-04-29T04:02:59.251Z,12.10
2023-04-29T04:05:26.831Z,12.10
2023-04-29T04:08:00.563Z,12.10
2023-04-29T04:10:34.458Z,12.10
2023-04-29T04:13:05.120Z,12.10
2023-04-29T04:15:32.449Z,12.00
2023-04-29T04:17:59.899Z,12.00
2023-04-29T04:20:27.048Z,12.00
2023-04-29T04:22:54.876Z,12.00
2023-04-29T04:25:28.628Z,11.90
2023-04-29T04:28:03.031Z,11.90
2023-04-29T04:30:48.768Z,11.90
2023-04-29T04:33:16.094Z,11.80
2023-04-29T04:35:45.726Z,11.80
2023-04-29T04:38:12.588Z,11.80
2023-04-29T04:40:41.970Z,11.80
2023-04-29T04:43:41.002Z,11.80
2023-04-29T04:46:16.244Z,11.80
2023-04-29T04:49:01.870Z,11.70
2023-04-29T04:51:30.138Z,11.70
2023-04-29T04:53:57.047Z,11.70
2023-04-29T04:56:24.791Z,11.60
2023-04-29T04:58:53.235Z,11.70
2023-04-29T05:01:20.159Z,11.70
2023-04-29T05:03:47.149Z,11.70
2023-04-29T05:06:14.696Z,11.70
2023-04-29T05:08:45.338Z,11.70
2023-04-29T05:11:17.670Z,11.70
2023-04-29T05:13:46.217Z,11.70
2023-04-29T05:16:15.436Z,11.70
2023-04-29T05:18:46.454Z,11.70
2023-04-29T05:21:15.464Z,11.70
2023-04-29T05:23:44.053Z,11.80
2023-04-29T05:26:11.100Z,11.90
2023-04-29T05:28:38.533Z,12.00
2023-04-29T05:31:06.301Z,12.00
2023-04-29T05:33:34.675Z,12.00
2023-04-29T05:36:02.199Z,12.10
2023-04-29T05:38:29.255Z,12.10
2023-04-29T05:41:08.173Z,12.10
2023-04-29T05:43:45.673Z,12.20
2023-04-29T05:46:14.617Z,12.20
2023-04-29T05:48:43.356Z,12.30
2023-04-29T05:51:12.640Z,12.30
2023-04-29T05:53:40.604Z,12.40
2023-04-29T05:56:08.480Z,12.40
2023-04-29T05:58:36.538Z,12.50
2023-04-29T06:01:03.481Z,12.50
2023-04-29T06:03:31.427Z,12.60
2023-04-29T06:06:29.587Z,12.70
2023-04-29T06:09:16.354Z,12.80
2023-04-29T06:11:51.106Z,12.90
2023-04-29T06:14:17.981Z,13.00
2023-04-29T06:16:44.988Z,13.00
2023-04-29T06:19:11.946Z,13.10
2023-04-29T06:21:40.176Z,13.20
2023-04-29T06:24:07.828Z,13.30
2023-04-29T06:26:35.279Z,13.30
2023-04-29T06:29:02.246Z,13.40
2023-04-29T06:31:29.504Z,13.40
2023-04-29T06:34:01.018Z,13.40
2023-04-29T06:36:28.190Z,13.30
2023-04-29T06:39:05.060Z,13.30
2023-04-29T06:42:04.140Z,13.30
2023-04-29T06:44:47.152Z,13.30
2023-04-29T06:47:29.310Z,13.30
2023-04-29T06:50:22.412Z,13.40
2023-04-29T06:52:49.311Z,13.50
2023-04-29T06:55:17.941Z,13.50
2023-04-29T06:57:44.850Z,13.50
2023-04-29T07:00:15.965Z,13.50
2023-04-29T07:02:43.303Z,13.40
2023-04-29T07:05:11.018Z,13.40
2023-04-29T07:07:38.185Z,13.30
2023-04-29T07:10:05.784Z,13.30
2023-04-29T07:12:34.118Z,13.30
2023-04-29T07:15:01.748Z,13.30
2023-04-29T07:17:30.241Z,13.30
2023-04-29T07:19:57.427Z,13.40
2023-04-29T07:22:24.559Z,13.40
2023-04-29T07:24:53.747Z,13.50
2023-04-29T07:27:21.148Z,13.60
2023-04-29T07:29:50.130Z,13.70
2023-04-29T07:32:17.212Z,13.90
2023-04-29T07:34:44.157Z,14.00
2023-04-29T07:37:11.069Z,14.20
2023-04-29T07:39:37.998Z,14.20
2023-04-29T07:42:05.135Z,14.40
2023-04-29T07:44:32.187Z,14.40
2023-04-29T07:47:00.591Z,14.40
2023-04-29T07:49:27.631Z,14.40
2023-04-29T07:51:54.562Z,14.40
2023-04-29T07:54:22.599Z,14.60
2023-04-29T07:56:49.518Z,14.60
2023-04-29T07:59:16.905Z,14.70
2023-04-29T08:01:43.833Z,14.70
2023-04-29T08:04:12.915Z,14.70
2023-04-29T08:06:50.049Z,14.80
2023-04-29T08:09:17.154Z,14.80
2023-04-29T08:11:44.956Z,14.80
2023-04-29T08:14:13.520Z,14.90
2023-04-29T08:16:40.504Z,15.00
2023-04-29T08:19:07.391Z,15.10
2023-04-29T08:21:35.668Z,15.10
2023-04-29T08:24:02.683Z,15.20
2023-04-29T08:26:30.443Z,15.20
2023-04-29T08:28:57.388Z,15.20
2023-04-29T08:31:24.295Z,15.20
2023-04-29T08:33:51.187Z,15.20
2023-04-29T08:36:18.124Z,15.20
2023-04-29T08:38:47.131Z,15.20
2023-04-29T08:41:15.423Z,15.20
2023-04-29T08:43:42.342Z,15.20
2023-04-29T08:46:10.578Z,15.30
2023-04-29T08:48:44.195Z,15.40
2023-04-29T08:51:13.541Z,15.50
2023-04-29T08:53:40.495Z,15.60
2023-04-29T08:56:21.814Z,15.70
2023-04-29T08:58:58.629Z,15.90
2023-04-29T09:01:27.794Z,15.90
2023-04-29T09:04:05.332Z,15.90
2023-04-29T09:06:33.622Z,15.90
2023-04-29T09:09:02.052Z,16.00
2023-04-29T09:11:31.045Z,16.10
2023-04-29T09:14:00.885Z,16.10
2023-04-29T09:16:28.203Z,16.30
2023-04-29T09:18:56.683Z,16.40
2023-04-29T09:21:24.652Z,16.70
2023-04-29T09:23:53.064Z,16.80
2023-04-29T09:26:20.734Z,16.80
2023-04-29T09:29:07.393Z,16.90
2023-04-29T09:31:34.316Z,17.10
2023-04-29T09:34:01.247Z,17.30
2023-04-29T09:36:39.451Z,17.50
2023-04-29T09:39:11.403Z,17.70
2023-04-29T09:41:56.648Z,17.80
2023-04-29T09:44:26.762Z,18.00
2023-04-29T09:46:57.901Z,18.10
2023-04-29T09:49:27.372Z,18.20
2023-04-29T09:51:55.973Z,18.30
2023-04-29T09:54:23.685Z,18.30
2023-04-29T09:56:51.865Z,18.40
2023-04-29T09:59:19.479Z,18.60
2023-04-29T10:01:50.528Z,18.70
2023-04-29T10:04:19.276Z,18.80
2023-04-29T10:06:48.800Z,18.80
2023-04-29T10:09:16.523Z,19.00
2023-04-29T10:11:44.282Z,19.30
2023-04-29T10:14:14.371Z,19.90
2023-04-29T10:16:46.772Z,20.50
2023-04-29T10:19:24.352Z,21.10
2023-04-29T10:21:53.655Z,21.50
2023-04-29T10:24:21.959Z,21.80
2023-04-29T10:26:51.164Z,22.00
2023-04-29T10:29:19.031Z,22.40
2023-04-29T10:31:48.618Z,22.90
2023-04-29T10:34:18.855Z,23.20
2023-04-29T10:36:47.006Z,23.10
2023-04-29T10:39:23.998Z,22.90
2023-04-29T10:41:51.608Z,23.20
2023-04-29T10:44:18.668Z,23.10
2023-04-29T10:46:45.782Z,23.20
2023-04-29T10:49:12.691Z,23.10
2023-04-29T10:51:45.564Z,22.80
2023-04-29T10:54:14.180Z,22.50
2023-04-29T10:56:43.314Z,22.30
2023-04-29T10:59:12.094Z,22.10
2023-04-29T11:01:44.399Z,22.10
2023-04-29T11:04:12.111Z,21.90
2023-04-29T11:06:48.368Z,21.60
2023-04-29T11:09:19.752Z,21.40
2023-04-29T11:12:03.269Z,21.40
2023-04-29T11:14:32.607Z,21.40
2023-04-29T11:17:02.027Z,21.40
2023-04-29T11:19:32.566Z,21.40
2023-04-29T11:22:13.043Z,21.20
2023-04-29T11:24:54.554Z,21.30
2023-04-29T11:27:25.596Z,21.40
2023-04-29T11:29:58.175Z,21.50
2023-04-29T11:32:26.102Z,21.90
2023-04-29T11:34:53.770Z,22.10
2023-04-29T11:37:24.771Z,22.10
2023-04-29T11:39:52.468Z,22.20
2023-04-29T11:42:22.527Z,22.30
2023-04-29T11:44:53.376Z,22.20
2023-04-29T11:47:22.016Z,22.30
2023-04-29T11:49:48.911Z,22.10
2023-04-29T11:52:16.422Z,22.00
2023-04-29T11:54:44.793Z,21.80
2023-04-29T11:57:11.713Z,21.60
2023-04-29T11:59:38.902Z,21.60
2023-04-29T12:02:06.662Z,21.90
2023-04-29T12:04:33.685Z,22.30
2023-04-29T12:07:02.879Z,22.50
2023-04-29T12:09:29.789Z,22.40
2023-04-29T12:11:58.065Z,22.30
2023-04-29T12:14:25.040Z,22.20
2023-04-29T12:16:52.412Z,22.20
2023-04-29T12:19:19.375Z,22.40
2023-04-29T12:21:50.140Z,22.50
2023-04-29T12:24:17.445Z,22.40
2023-04-29T12:26:45.789Z,22.50
2023-04-29T12:29:14.568Z,22.30
2023-04-29T12:31:42.028Z,22.10
2023-04-29T12:34:10.114Z,21.90
2023-04-29T12:36:37.804Z,21.60
2023-04-29T12:39:09.901Z,21.30
2023-04-29T12:41:38.110Z,21.10
2023-04-29T12:44:06.212Z,20.90
2023-04-29T12:46:38.286Z,20.90
2023-04-29T12:49:05.826Z,20.70
2023-04-29T12:51:33.675Z,20.60
2023-04-29T12:54:01.839Z,20.90
2023-04-29T12:56:28.839Z,21.50
2023-04-29T12:58:55.768Z,22.00
2023-04-29T13:01:22.731Z,22.50
2023-04-29T13:03:51.662Z,22.90
2023-04-29T13:06:18.842Z,23.50
2023-04-29T13:08:45.895Z,24.10
2023-04-29T13:11:13.645Z,24.50
2023-04-29T13:13:40.744Z,24.60
2023-04-29T13:16:08.502Z,24.40
2023-04-29T13:18:36.552Z,23.90
2023-04-29T13:21:05.031Z,23.60
2023-04-29T13:23:31.907Z,23.60
2023-04-29T13:25:58.822Z,23.60
2023-04-29T13:28:25.769Z,23.60
2023-04-29T13:30:52.775Z,23.40
2023-04-29T13:33:19.714Z,23.10
2023-04-29T13:35:48.298Z,22.90
2023-04-29T13:38:17.666Z,22.50
2023-04-29T13:40:47.011Z,22.30
2023-04-29T13:43:20.978Z,22.10
2023-04-29T13:45:56.417Z,22.00
2023-04-29T13:48:55.017Z,21.90
2023-04-29T14:02:07.865Z,22.60
2023-04-29T14:04:07.007Z,22.40
2023-04-29T14:06:34.821Z,22.30
2023-04-29T14:09:04.334Z,22.40
2023-04-29T14:11:31.804Z,22.30
2023-04-29T14:13:58.903Z,21.80
2023-04-29T14:16:26.235Z,21.40
2023-04-29T14:18:53.237Z,21.30
2023-04-29T14:21:22.725Z,21.10
2023-04-29T14:23:49.691Z,20.90
2023-04-29T14:26:27.979Z,20.80
2023-04-29T14:28:58.172Z,20.90
2023-04-29T14:31:25.557Z,21.10
2023-04-29T14:33:52.485Z,21.40
2023-04-29T14:36:19.369Z,21.60
2023-04-29T14:38:46.327Z,21.80
2023-04-29T14:41:13.244Z,21.80
2023-04-29T14:43:42.524Z,21.70
2023-04-29T14:46:09.706Z,21.40
2023-04-29T14:48:36.697Z,21.30
2023-04-29T14:51:03.929Z,21.10
2023-04-29T14:53:30.920Z,20.90
2023-04-29T14:55:58.458Z,20.80
2023-04-29T14:58:25.733Z,20.60
2023-04-29T15:00:54.022Z,20.30
2023-04-29T15:03:23.261Z,20.20
2023-04-29T15:05:51.301Z,20.10
2023-04-29T15:08:18.766Z,19.90
2023-04-29T15:10:49.991Z,19.70
2023-04-29T15:13:17.026Z,19.50
2023-04-29T15:15:43.940Z,19.30
2023-04-29T15:18:12.223Z,19.10
2023-04-29T15:20:39.180Z,18.90
2023-04-29T15:23:06.577Z,18.70
2023-04-29T15:25:34.392Z,18.50
2023-04-29T15:28:02.171Z,18.40
2023-04-29T15:30:29.177Z,18.40
2023-04-29T15:32:56.130Z,18.40
2023-04-29T15:35:24.510Z,18.30
2023-04-29T15:37:51.369Z,18.30
2023-04-29T15:40:18.395Z,18.30
2023-04-29T15:42:45.360Z,18.20
2023-04-29T15:45:12.335Z,18.00
2023-04-29T15:47:39.832Z,18.10
2023-04-29T15:50:09.568Z,18.10
2023-04-29T15:52:37.879Z,18.10
2023-04-29T15:55:05.778Z,18.10
2023-04-29T15:57:32.905Z,18.10
2023-04-29T15:59:59.861Z,18.00
2023-04-29T16:02:26.860Z,17.90
2023-04-29T16:04:53.734Z,17.80
2023-04-29T16:07:20.640Z,17.70
2023-04-29T16:09:48.874Z,17.70
2023-04-29T16:12:16.051Z,17.70
2023-04-29T16:14:42.929Z,17.80
2023-04-29T16:17:09.844Z,17.70
2023-04-29T16:19:37.149Z,17.70
2023-04-29T16:22:04.613Z,17.70
2023-04-29T16:24:32.042Z,17.70
2023-04-29T16:27:01.518Z,17.60
2023-04-29T16:29:28.670Z,17.40
2023-04-29T16:31:55.599Z,17.30
2023-04-29T16:34:22.534Z,17.10
2023-04-29T16:36:50.882Z,17.00
2023-04-29T16:39:17.933Z,17.00
2023-04-29T16:41:44.978Z,17.00
2023-04-29T16:44:13.384Z,17.00
2023-04-29T16:46:40.646Z,16.90
2023-04-29T16:49:07.869Z,16.90
2023-04-29T16:51:34.856Z,16.90
2023-04-29T16:54:01.810Z,16.60
2023-04-29T16:56:28.957Z,16.40
2023-04-29T16:58:55.882Z,16.30
2023-04-29T17:01:24.228Z,16.20
2023-04-29T17:03:51.397Z,16.10
2023-04-29T17:06:18.598Z,16.10
2023-04-29T17:08:45.875Z,15.90
2023-04-29T17:11:12.832Z,15.80
2023-04-29T17:13:39.896Z,15.80
2023-04-29T17:16:08.027Z,15.80
2023-04-29T17:18:37.340Z,15.70
2023-04-29T17:21:04.811Z,15.70
2023-04-29T17:23:31.906Z,15.80
2023-04-29T17:25:58.916Z,15.80
2023-04-29T17:28:26.381Z,15.70
2023-04-29T17:30:55.902Z,15.70
2023-04-29T17:33:22.870Z,15.60
2023-04-29T17:35:51.113Z,15.60
2023-04-29T17:38:18.160Z,15.60
2023-04-29T17:40:45.129Z,15.60
2023-04-29T17:43:12.037Z,15.60
2023-04-29T17:45:40.551Z,15.70
2023-04-29T17:48:07.806Z,15.70
2023-04-29T17:50:34.827Z,15.80
2023-04-29T17:53:03.066Z,15.60
2023-04-29T17:55:30.127Z,15.60
2023-04-29T17:57:56.998Z,15.50
2023-04-29T18:00:24.171Z,15.40
2023-04-29T18:02:51.109Z,15.40
2023-04-29T18:05:18.101Z,15.30
2023-04-29T18:07:44.979Z,15.30
2023-04-29T18:10:13.225Z,15.30
2023-04-29T18:12:40.251Z,15.30
2023-04-29T18:15:09.648Z,15.20
2023-04-29T18:17:36.708Z,15.20
2023-04-29T18:20:04.209Z,15.20
2023-04-29T18:22:31.107Z,15.20
2023-04-29T18:25:00.036Z,15.20
2023-04-29T18:27:28.566Z,15.20
2023-04-29T18:29:55.692Z,15.10
2023-04-29T18:32:22.751Z,15.10
2023-04-29T18:34:50.023Z,15.10
2023-04-29T18:37:16.889Z,15.10
2023-04-29T18:39:43.795Z,15.00
2023-04-29T18:42:10.831Z,15.00
2023-04-29T18:44:40.014Z,14.90
2023-04-29T18:47:07.119Z,14.90
2023-04-29T18:49:34.776Z,14.90
2023-04-29T18:52:03.210Z,14.90
2023-04-29T18:54:30.274Z,14.90
2023-04-29T18:56:57.195Z,14.90
2023-04-29T18:59:24.058Z,14.90
2023-04-29T19:01:52.348Z,14.80
2023-04-29T19:04:19.759Z,14.80
2023-04-29T19:06:46.752Z,14.80
2023-04-29T19:09:14.334Z,14.80
2023-04-29T19:11:42.596Z,14.80
2023-04-29T19:14:09.707Z,14.80
2023-04-29T19:16:37.261Z,14.80
2023-04-29T19:19:06.657Z,14.80
2023-04-29T19:21:33.717Z,14.70
2023-04-29T19:24:00.657Z,14.70
2023-04-29T19:26:27.609Z,14.60
2023-04-29T19:28:54.528Z,14.50
2023-04-29T19:31:21.543Z,14.50
2023-04-29T19:33:48.559Z,14.50
2023-04-29T19:36:16.785Z,14.40
2023-04-29T19:38:43.943Z,14.30
2023-04-29T19:41:10.905Z,14.30
2023-04-29T19:43:37.763Z,14.30
2023-04-29T19:46:04.661Z,14.40
2023-04-29T19:48:31.573Z,14.40
2023-04-29T19:50:59.667Z,14.40
2023-04-29T19:53:27.997Z,14.40
2023-04-29T19:55:54.814Z,14.40
2023-04-29T19:58:21.730Z,14.40
2023-04-29T20:00:48.757Z,14.40
2023-04-29T20:03:15.882Z,14.40
2023-04-29T20:05:43.234Z,14.30
2023-04-29T20:08:10.235Z,14.20
2023-04-29T20:10:38.489Z,14.10
2023-04-29T20:13:05.352Z,14.10
2023-04-29T20:15:32.174Z,14.00
2023-04-29T20:17:59.080Z,13.90
2023-04-29T20:20:26.717Z,13.90
2023-04-29T20:22:57.986Z,13.80
2023-04-29T20:25:26.276Z,13.80
2023-04-29T20:27:54.505Z,13.80
2023-04-29T20:30:21.680Z,13.80
2023-04-29T20:32:48.666Z,13.80
2023-04-29T20:35:15.960Z,13.90
2023-04-29T20:37:42.844Z,14.00
2023-04-29T20:40:10.601Z,13.90
2023-04-29T20:42:37.528Z,13.80
2023-04-29T20:45:07.307Z,13.70
2023-04-29T20:47:35.414Z,13.70
2023-04-29T20:50:04.856Z,13.70
2023-04-29T20:52:31.680Z,13.70
2023-04-29T20:54:58.772Z,13.70
2023-04-29T20:57:25.850Z,13.70
2023-04-29T20:59:53.103Z,13.80
2023-04-29T21:02:21.599Z,13.80
2023-04-29T21:04:48.678Z,13.80
2023-04-29T21:07:15.731Z,13.70
2023-04-29T21:09:42.688Z,13.70
2023-04-29T21:12:09.566Z,13.70
2023-04-29T21:14:37.504Z,13.60
2023-04-29T21:17:04.545Z,13.50
2023-04-29T21:19:34.864Z,13.50
2023-04-29T21:22:01.774Z,13.40
2023-04-29T21:24:28.768Z,13.40
2023-04-29T21:26:55.659Z,13.50
2023-04-29T21:29:22.587Z,13.60
2023-04-29T21:31:49.617Z,13.60
2023-04-29T21:34:16.523Z,13.70
2023-04-29T21:36:44.903Z,13.70
2023-04-29T21:39:11.852Z,13.70
2023-04-29T21:41:39.676Z,13.60
2023-04-29T21:44:07.541Z,13.60
2023-04-29T21:46:35.562Z,13.60
2023-04-29T21:49:03.380Z,13.60
2023-04-29T21:51:31.659Z,13.60
2023-04-29T21:54:00.154Z,13.60
2023-04-29T21:56:27.241Z,13.60
2023-04-29T21:58:54.220Z,13.60
2023-04-29T22:01:39.621Z,13.50
2023-04-29T22:04:06.734Z,13.60
2023-04-29T22:06:34.438Z,13.60
2023-04-29T22:09:02.920Z,13.60
2023-04-29T22:11:29.876Z,13.60
2023-04-29T22:13:56.877Z,13.60
2023-04-29T22:16:23.912Z,13.60
2023-04-29T22:18:51.318Z,13.60
2023-04-29T22:21:18.586Z,13.60
2023-04-29T22:23:45.711Z,13.60
2023-04-29T22:26:14.122Z,13.60
2023-04-29T22:28:41.045Z,13.50
2023-04-29T22:31:07.966Z,13.50
2023-04-29T22:33:35.367Z,13.50
2023-04-29T22:36:02.505Z,13.50
2023-04-29T22:38:29.693Z,13.50
2023-04-29T22:40:56.660Z,13.50
2023-04-29T22:43:24.972Z,13.50
2023-04-29T22:45:53.218Z,13.50
2023-04-29T22:48:20.638Z,13.40
2023-04-29T22:50:51.957Z,13.40
2023-04-29T22:53:19.304Z,13.40
2023-04-29T22:55:50.664Z,13.30
2023-04-29T22:58:17.787Z,13.30
2023-04-29T23:00:46.420Z,13.30
2023-04-29T23:03:13.738Z,13.20
2023-04-29T23:05:40.970Z,13.20
2023-04-29T23:08:08.094Z,13.10
2023-04-29T23:10:35.423Z,13.10
2023-04-29T23:13:02.882Z,13.10
2023-04-29T23:15:30.639Z,13.10
2023-04-29T23:17:58.961Z,13.10
2023-04-29T23:20:25.975Z,13.10
2023-04-29T23:22:52.949Z,13.10
2023-04-29T23:25:19.866Z,13.10
2023-04-29T23:27:46.727Z,13.10
2023-04-29T23:30:13.643Z,13.10
2023-04-29T23:32:40.758Z,13.10
2023-04-29T23:35:11.521Z,13.10
2023-04-29T23:37:38.583Z,13.10
2023-04-29T23:40:07.274Z,13.10
2023-04-29T23:42:34.223Z,13.00
2023-04-29T23:45:01.180Z,13.10
2023-04-29T23:47:28.132Z,13.10
2023-04-29T23:49:55.217Z,13.20
2023-04-29T23:52:23.936Z,13.20
2023-04-29T23:54:50.910Z,13.20
2023-04-29T23:57:17.958Z,13.20
2023-04-29T23:59:45.648Z,13.30
